Time;durP1;ratioP1;P1;durP2;ratioP2;P2;SDS_P1;SDS_P2;PMS_P1;PMS_P2;Temp;Humidity;BMP_temperature;BMP_pressure;BME280_temperature;BME280_humidity;BME280_pressure;Samples;Min_cycle;Max_cycle;Signal;HPM_P1;HPM_P2
2023/03/27 00:02:21;;;;;;;0.65;0.40;;;;;10.50;101316.00;;;;5009957;28;20208;-80
2023/03/27 00:04:49;;;;;;;1.60;0.47;;;;;10.50;101320.00;;;;5008726;28;20746;-79
2023/03/27 00:07:18;;;;;;;2.67;0.57;;;;;10.50;101319.00;;;;4996132;28;20209;-80
2023/03/27 00:09:46;;;;;;;3.72;0.40;;;;;10.50;101326.00;;;;5004251;28;20204;-80
2023/03/27 00:12:13;;;;;;;0.85;0.35;;;;;10.50;101330.00;;;;5008176;28;20208;-80
2023/03/27 00:14:42;;;;;;;1.15;0.50;;;;;10.50;101335.00;;;;5009402;28;20817;-80
2023/03/27 00:17:09;;;;;;;1.67;0.52;;;;;10.50;101330.00;;;;5008284;28;20205;-80
2023/03/27 00:19:37;;;;;;;2.17;0.52;;;;;10.50;101333.00;;;;5006301;28;20207;-80
2023/03/27 00:22:05;;;;;;;2.22;0.50;;;;;10.50;101323.00;;;;5008977;28;20211;-80
2023/03/27 00:24:33;;;;;;;1.70;0.43;;;;;10.50;101326.00;;;;4996133;28;20249;-80
2023/03/27 00:27:00;;;;;;;3.10;0.40;;;;;10.50;101328.00;;;;5008107;28;20628;-79
2023/03/27 00:29:27;;;;;;;0.70;0.30;;;;;10.50;101333.00;;;;5008026;28;20197;-80
2023/03/27 00:31:56;;;;;;;1.95;0.45;;;;;10.50;101336.00;;;;5007275;28;20201;-80
2023/03/27 00:34:23;;;;;;;1.17;0.60;;;;;10.50;101342.00;;;;5005212;28;20239;-80
2023/03/27 00:36:52;;;;;;;2.42;0.57;;;;;10.50;101346.00;;;;5006775;28;20702;-79
2023/03/27 00:39:19;;;;;;;2.03;0.15;;;;;10.60;101352.00;;;;5007812;28;20295;-80
2023/03/27 00:41:47;;;;;;;2.45;0.75;;;;;10.60;101355.00;;;;5003452;28;20200;-79
2023/03/27 00:44:24;;;;;;;2.38;0.43;;;;;10.50;101357.00;;;;5005026;28;20201;-79
2023/03/27 00:46:53;;;;;;;4.35;0.60;;;;;10.60;101358.00;;;;5005676;28;20196;-79
2023/03/27 00:49:23;;;;;;;3.13;0.43;;;;;10.60;101360.00;;;;5007757;28;20215;-80
2023/03/27 00:51:52;;;;;;;2.40;0.30;;;;;10.60;101360.00;;;;5008122;28;20197;-79
2023/03/27 00:54:25;;;;;;;5.60;0.70;;;;;10.60;101363.00;;;;5007048;28;20286;-79
2023/03/27 00:56:54;;;;;;;2.63;0.30;;;;;10.60;101360.00;;;;5005697;28;20207;-79
2023/03/27 00:59:26;;;;;;;1.13;0.28;;;;;10.50;101370.00;;;;4994681;28;20764;-79
2023/03/27 01:01:53;;;;;;;4.63;0.70;;;;;10.60;101375.00;;;;5005555;28;20212;-80
2023/03/27 01:04:22;;;;;;;3.92;0.40;;;;;10.50;101377.00;;;;5006287;28;20193;-79
2023/03/27 01:06:53;;;;;;;1.48;0.30;;;;;10.50;101383.00;;;;5005958;28;20204;-80
2023/03/27 01:09:20;;;;;;;1.70;0.43;;;;;10.50;101394.00;;;;5007073;28;20205;-80
2023/03/27 01:12:01;;;;;;;2.38;0.50;;;;;10.40;101391.00;;;;5005409;28;20205;-80
2023/03/27 01:14:36;;;;;;;1.58;0.45;;;;;10.40;101390.00;;;;5005383;28;20225;-80
2023/03/27 01:17:19;;;;;;;2.28;0.43;;;;;10.40;101396.00;;;;5007091;28;20202;-80
2023/03/27 01:20:13;;;;;;;0.85;0.28;;;;;10.30;101400.00;;;;5007228;28;20211;-79
2023/03/27 01:23:25;;;;;;;1.92;0.65;;;;;10.20;101407.00;;;;5005342;28;20193;-80
2023/03/27 01:26:33;;;;;;;2.65;0.70;;;;;10.10;101411.00;;;;4997945;28;20205;-80
2023/03/27 01:29:06;;;;;;;0.88;0.40;;;;;10.20;101413.00;;;;4998987;28;20655;-79
2023/03/27 01:31:50;;;;;;;3.17;0.40;;;;;10.10;101414.00;;;;5001397;28;20228;-79
2023/03/27 01:34:46;;;;;;;1.02;0.52;;;;;10.00;101418.00;;;;5007713;28;20287;-79
2023/03/27 01:37:34;;;;;;;1.65;0.30;;;;;10.00;101412.00;;;;5007371;28;20566;-79
2023/03/27 01:40:07;;;;;;;1.02;0.30;;;;;10.00;101414.00;;;;5007229;28;20189;-79
2023/03/27 01:42:41;;;;;;;2.40;0.32;;;;;10.00;101422.00;;;;5004634;28;20197;-79
2023/03/27 01:45:14;;;;;;;0.82;0.40;;;;;10.00;101422.00;;;;5006454;28;20259;-79
2023/03/27 01:47:44;;;;;;;1.00;0.20;;;;;10.00;101422.00;;;;5006440;28;20284;-80
2023/03/27 01:50:19;;;;;;;1.63;0.40;;;;;9.90;101424.00;;;;5007296;28;20205;-79
2023/03/27 01:52:53;;;;;;;3.65;0.50;;;;;9.90;101418.00;;;;5005795;28;20197;-79
2023/03/27 01:55:27;;;;;;;1.05;0.30;;;;;9.90;101423.00;;;;5008981;28;20228;-79
2023/03/27 01:57:59;;;;;;;2.47;0.68;;;;;9.90;101428.00;;;;5004042;28;20591;-79
2023/03/27 02:00:29;;;;;;;0.80;0.30;;;;;9.90;101421.00;;;;5007025;28;20227;-79
2023/03/27 02:03:00;;;;;;;2.08;0.60;;;;;9.80;101424.00;;;;5005305;28;20226;-79
2023/03/27 02:05:34;;;;;;;1.13;0.60;;;;;9.80;101421.00;;;;5003925;28;20193;-79
2023/03/27 02:08:08;;;;;;;1.60;0.60;;;;;9.80;101433.00;;;;5009440;28;20742;-79
2023/03/27 02:10:41;;;;;;;0.57;0.28;;;;;9.70;101429.00;;;;5010748;28;20570;-79
2023/03/27 02:13:17;;;;;;;0.68;0.20;;;;;9.70;101443.00;;;;5010223;28;20201;-79
2023/03/27 02:15:46;;;;;;;2.83;1.00;;;;;9.70;101445.00;;;;5007924;28;20196;-79
2023/03/27 02:18:19;;;;;;;2.60;0.55;;;;;9.60;101452.00;;;;5009748;28;20201;-79
2023/03/27 02:20:47;;;;;;;1.25;0.35;;;;;9.60;101456.00;;;;5009884;28;20691;-79
2023/03/27 02:23:14;;;;;;;2.70;0.22;;;;;9.60;101456.00;;;;5007753;28;20255;-79
2023/03/27 02:25:45;;;;;;;0.90;0.30;;;;;9.50;101456.00;;;;5009710;28;20729;-79
2023/03/27 02:28:47;;;;;;;0.80;0.38;;;;;9.40;101458.00;;;;5009967;28;20204;-79
2023/03/27 02:31:33;;;;;;;0.70;0.30;;;;;9.40;101462.00;;;;5004912;28;20203;-79
2023/03/27 02:34:37;;;;;;;1.90;0.25;;;;;9.30;101469.00;;;;5007427;28;20267;-79
2023/03/27 02:37:15;;;;;;;0.82;0.20;;;;;9.30;101472.00;;;;5000788;28;20254;-79
2023/03/27 02:39:53;;;;;;;0.88;0.20;;;;;9.30;101472.00;;;;5008082;28;20204;-80
2023/03/27 02:42:27;;;;;;;0.38;0.28;;;;;9.30;101482.00;;;;5007995;28;20235;-80
2023/03/27 02:45:01;;;;;;;2.47;0.40;;;;;9.20;101484.00;;;;5008537;28;20204;-79
2023/03/27 02:47:36;;;;;;;2.40;0.45;;;;;9.20;101480.00;;;;5009668;28;20203;-79
2023/03/27 02:50:08;;;;;;;0.82;0.40;;;;;9.20;101478.00;;;;5010241;28;20197;-79
2023/03/27 02:52:39;;;;;;;0.35;0.30;;;;;9.20;101484.00;;;;5008419;28;20193;-79
2023/03/27 02:55:11;;;;;;;1.95;0.13;;;;;9.10;101494.00;;;;5008207;28;20229;-79
2023/03/27 02:57:40;;;;;;;4.50;0.40;;;;;9.10;101490.00;;;;5009052;28;20232;-79
2023/03/27 03:00:17;;;;;;;0.28;0.10;;;;;9.10;101492.00;;;;5010004;28;20243;-79
2023/03/27 03:02:46;;;;;;;1.38;0.30;;;;;9.10;101492.00;;;;5007150;28;20189;-79
2023/03/27 03:05:20;;;;;;;3.80;0.30;;;;;9.00;101499.00;;;;5006778;28;20666;-79
2023/03/27 03:07:48;;;;;;;1.77;0.30;;;;;9.00;101496.00;;;;5007924;28;20197;-79
2023/03/27 03:10:16;;;;;;;5.22;0.50;;;;;9.00;101500.00;;;;5008393;28;20220;-79
2023/03/27 03:12:46;;;;;;;1.60;0.28;;;;;9.00;101507.00;;;;5008164;28;20197;-79
2023/03/27 03:15:14;;;;;;;1.00;0.52;;;;;8.90;101505.00;;;;5002743;28;20228;-79
2023/03/27 03:17:41;;;;;;;3.30;0.25;;;;;8.90;101509.00;;;;5007954;28;20208;-79
2023/03/27 03:20:11;;;;;;;2.33;0.65;;;;;8.90;101518.00;;;;5009222;28;20197;-79
2023/03/27 03:22:39;;;;;;;0.50;0.20;;;;;8.90;101517.00;;;;5008085;28;20662;-79
2023/03/27 03:25:07;;;;;;;0.65;0.43;;;;;8.80;101511.00;;;;5010669;28;20209;-79
2023/03/27 03:27:34;;;;;;;1.38;0.43;;;;;8.80;101526.00;;;;5009764;28;20753;-79
2023/03/27 03:30:08;;;;;;;0.63;0.40;;;;;8.80;101527.00;;;;5006946;28;20573;-79
2023/03/27 03:32:35;;;;;;;0.50;0.30;;;;;8.80;101536.00;;;;4998915;28;20197;-79
2023/03/27 03:35:02;;;;;;;1.10;0.30;;;;;8.70;101534.00;;;;5008873;28;20224;-79
2023/03/27 03:37:37;;;;;;;3.95;0.40;;;;;8.70;101537.00;;;;5009919;28;20267;-79
2023/03/27 03:40:10;;;;;;;1.38;0.40;;;;;8.70;101550.00;;;;5010195;28;20204;-79
2023/03/27 03:42:43;;;;;;;0.47;0.10;;;;;8.70;101539.00;;;;5009213;28;20201;-79
2023/03/27 03:45:12;;;;;;;0.22;0.20;;;;;8.60;101545.00;;;;5007696;28;20201;-79
2023/03/27 03:47:40;;;;;;;1.40;0.30;;;;;8.60;101556.00;;;;4999746;28;20202;-79
2023/03/27 03:50:07;;;;;;;0.38;0.30;;;;;8.60;101565.00;;;;5006240;28;20663;-79
2023/03/27 03:52:35;;;;;;;3.60;0.63;;;;;8.60;101566.00;;;;5008649;28;20252;-79
2023/03/27 03:55:04;;;;;;;0.75;0.30;;;;;8.60;101568.00;;;;5008438;28;20221;-79
2023/03/27 03:57:33;;;;;;;1.58;0.25;;;;;8.50;101567.00;;;;5007328;28;20193;-78
2023/03/27 04:00:00;;;;;;;1.23;0.38;;;;;8.50;101573.00;;;;5009287;28;20221;-78
2023/03/27 04:02:29;;;;;;;0.52;0.20;;;;;8.50;101584.00;;;;5008108;28;20212;-79
2023/03/27 04:04:56;;;;;;;1.98;0.38;;;;;8.50;101587.00;;;;5005714;28;20201;-78
2023/03/27 04:07:30;;;;;;;1.48;0.30;;;;;8.50;101581.00;;;;5004207;28;20209;-79
2023/03/27 04:09:58;;;;;;;1.98;0.30;;;;;8.50;101585.00;;;;5008919;28;20228;-79
2023/03/27 04:12:26;;;;;;;5.15;0.40;;;;;8.50;101595.00;;;;5008161;28;20197;-79
2023/03/27 04:14:54;;;;;;;4.25;0.40;;;;;8.50;101600.00;;;;5005124;28;20695;-79
2023/03/27 04:17:21;;;;;;;2.28;0.50;;;;;8.50;101591.00;;;;5006622;28;20205;-79
2023/03/27 04:19:53;;;;;;;2.80;0.30;;;;;8.40;101603.00;;;;5006129;28;20201;-79
2023/03/27 04:22:21;;;;;;;0.30;0.20;;;;;8.50;101603.00;;;;5007206;28;20200;-79
2023/03/27 04:24:49;;;;;;;0.57;0.25;;;;;8.50;101602.00;;;;5006718;28;20287;-78
2023/03/27 04:27:17;;;;;;;2.67;0.50;;;;;8.50;101605.00;;;;5006729;28;20256;-79
2023/03/27 04:29:46;;;;;;;2.20;0.40;;;;;8.50;101605.00;;;;5003028;28;20228;-78
2023/03/27 04:32:17;;;;;;;3.28;0.32;;;;;8.50;101603.00;;;;5008204;28;20666;-78
2023/03/27 04:34:45;;;;;;;0.90;0.40;;;;;8.50;101619.00;;;;5007251;28;20228;-79
2023/03/27 04:37:14;;;;;;;1.67;0.30;;;;;8.50;101623.00;;;;5007364;28;20197;-79
2023/03/27 04:39:43;;;;;;;1.52;0.60;;;;;8.50;101628.00;;;;5007393;28;20229;-79
2023/03/27 04:42:11;;;;;;;2.80;0.60;;;;;8.50;101620.00;;;;5004680;28;20204;-79
2023/03/27 04:44:38;;;;;;;1.25;0.43;;;;;8.40;101633.00;;;;5006456;28;20674;-79
2023/03/27 04:47:06;;;;;;;1.00;0.40;;;;;8.40;101637.00;;;;5007842;28;20208;-79
2023/03/27 04:49:38;;;;;;;0.75;0.50;;;;;8.40;101645.00;;;;5008464;28;20193;-79
2023/03/27 04:52:06;;;;;;;1.27;0.45;;;;;8.40;101642.00;;;;5006259;28;20208;-79
2023/03/27 04:54:34;;;;;;;1.35;0.40;;;;;8.40;101655.00;;;;5006280;28;20231;-79
2023/03/27 04:57:02;;;;;;;1.67;0.60;;;;;8.40;101651.00;;;;5006195;28;20197;-79
2023/03/27 04:59:30;;;;;;;1.15;0.60;;;;;8.40;101655.00;;;;5008412;28;20267;-79
2023/03/27 05:01:58;;;;;;;0.88;0.50;;;;;8.40;101649.00;;;;5006111;28;20209;-79
2023/03/27 05:04:26;;;;;;;3.55;0.55;;;;;8.40;101657.00;;;;5004291;28;20193;-79
2023/03/27 05:06:54;;;;;;;2.33;0.82;;;;;8.30;101657.00;;;;5005850;28;21083;-79
2023/03/27 05:09:22;;;;;;;0.75;0.57;;;;;8.30;101656.00;;;;5006928;28;20573;-79
2023/03/27 05:11:51;;;;;;;0.80;0.50;;;;;8.30;101666.00;;;;5006141;28;20208;-79
2023/03/27 05:14:19;;;;;;;3.38;0.40;;;;;8.40;101658.00;;;;5000505;28;20216;-78
2023/03/27 05:16:48;;;;;;;0.65;0.30;;;;;8.40;101663.00;;;;5004564;28;20201;-79
2023/03/27 05:19:18;;;;;;;1.15;0.40;;;;;8.40;101659.00;;;;5007359;28;20204;-79
2023/03/27 05:21:46;;;;;;;1.70;0.30;;;;;8.40;101671.00;;;;5004329;28;20282;-79
2023/03/27 05:24:14;;;;;;;1.65;0.32;;;;;8.40;101670.00;;;;5007424;28;20192;-79
2023/03/27 05:26:42;;;;;;;1.27;0.50;;;;;8.40;101673.00;;;;5007514;28;20283;-79
2023/03/27 05:29:10;;;;;;;4.25;0.88;;;;;8.40;101684.00;;;;5005272;28;20209;-79
2023/03/27 05:31:38;;;;;;;0.47;0.20;;;;;8.40;101681.00;;;;5007324;28;20216;-79
2023/03/27 05:34:05;;;;;;;4.47;0.60;;;;;8.40;101689.00;;;;5010122;28;20204;-79
2023/03/27 05:36:34;;;;;;;1.08;0.47;;;;;8.40;101690.00;;;;5011899;28;20204;-79
2023/03/27 05:39:01;;;;;;;2.35;0.40;;;;;8.50;101696.00;;;;5012370;28;20648;-79
2023/03/27 05:41:29;;;;;;;1.38;0.30;;;;;8.50;101700.00;;;;5009608;28;20197;-79
2023/03/27 05:43:56;;;;;;;1.08;0.50;;;;;8.50;101693.00;;;;5003540;28;20204;-79
2023/03/27 05:46:25;;;;;;;2.70;0.60;;;;;8.50;101693.00;;;;5006684;28;20605;-79
2023/03/27 05:48:52;;;;;;;2.17;0.60;;;;;8.50;101700.00;;;;5007610;28;20205;-79
2023/03/27 05:51:19;;;;;;;1.05;0.35;;;;;8.50;101701.00;;;;5008574;28;20205;-79
2023/03/27 05:53:47;;;;;;;2.40;0.90;;;;;8.50;101705.00;;;;4998849;28;20677;-79
2023/03/27 05:56:14;;;;;;;2.30;0.55;;;;;8.50;101711.00;;;;5011501;28;20228;-79
2023/03/27 05:58:41;;;;;;;1.38;0.40;;;;;8.50;101708.00;;;;5010567;28;20220;-79
2023/03/27 06:01:09;;;;;;;0.98;0.50;;;;;8.50;101709.00;;;;5008947;28;20197;-79
2023/03/27 06:03:38;;;;;;;0.35;0.20;;;;;8.50;101708.00;;;;5004474;28;20733;-79
2023/03/27 06:06:10;;;;;;;1.70;0.28;;;;;8.50;101713.00;;;;5008193;28;20201;-80
2023/03/27 06:08:37;;;;;;;2.95;0.60;;;;;8.60;101706.00;;;;4994879;28;20189;-79
2023/03/27 06:11:09;;;;;;;2.53;0.55;;;;;8.60;101714.00;;;;5010803;28;20201;-78
2023/03/27 06:13:38;;;;;;;1.98;0.30;;;;;8.60;101720.00;;;;5005305;28;20244;-77
2023/03/27 06:16:07;;;;;;;1.40;0.70;;;;;8.60;101720.00;;;;5001612;28;20225;-79
2023/03/27 06:18:34;;;;;;;1.90;0.63;;;;;8.60;101716.00;;;;5007589;28;20223;-79
2023/03/27 06:21:03;;;;;;;2.63;0.52;;;;;8.70;101724.00;;;;5007768;28;20208;-78
2023/03/27 06:23:31;;;;;;;1.35;0.63;;;;;8.70;101715.00;;;;5009834;28;20241;-79
2023/03/27 06:25:59;;;;;;;1.27;0.70;;;;;8.70;101733.00;;;;5008656;28;20312;-79
2023/03/27 06:28:26;;;;;;;2.05;1.08;;;;;8.80;101740.00;;;;5006999;28;20259;-79
2023/03/27 06:30:54;;;;;;;3.55;1.52;;;;;8.80;101744.00;;;;5007176;28;20206;-79
2023/03/27 06:33:21;;;;;;;1.40;0.60;;;;;8.90;101750.00;;;;5009631;28;20205;-79
2023/03/27 06:35:49;;;;;;;2.10;0.70;;;;;8.90;101745.00;;;;5009149;28;20228;-79
2023/03/27 06:38:19;;;;;;;1.95;0.57;;;;;8.90;101752.00;;;;5006426;28;20208;-79
2023/03/27 06:40:47;;;;;;;2.17;0.52;;;;;9.00;101752.00;;;;5009841;28;20742;-79
2023/03/27 06:43:21;;;;;;;3.78;0.65;;;;;9.00;101753.00;;;;5009847;28;20212;-79
2023/03/27 06:45:50;;;;;;;1.75;0.65;;;;;9.10;101753.00;;;;5007541;28;20189;-79
2023/03/27 06:48:18;;;;;;;1.90;0.40;;;;;9.20;101757.00;;;;5008636;28;20208;-79
2023/03/27 06:50:47;;;;;;;1.42;0.60;;;;;9.20;101753.00;;;;5009702;28;20201;-80
2023/03/27 06:53:16;;;;;;;2.15;0.55;;;;;9.30;101761.00;;;;5008154;28;20209;-80
2023/03/27 06:55:45;;;;;;;1.00;0.50;;;;;9.40;101767.00;;;;5002750;28;20625;-79
2023/03/27 06:58:13;;;;;;;2.67;0.80;;;;;9.50;101772.00;;;;5006766;28;20201;-81
2023/03/27 07:00:41;;;;;;;2.40;0.82;;;;;9.50;101771.00;;;;5007755;28;20593;-80
2023/03/27 07:03:10;;;;;;;2.30;0.80;;;;;9.50;101772.00;;;;4997825;28;20724;-80
2023/03/27 07:05:39;;;;;;;1.48;0.98;;;;;9.50;101775.00;;;;5009339;28;21072;-80
2023/03/27 07:08:08;;;;;;;1.40;0.52;;;;;9.60;101777.00;;;;5006202;28;20275;-80
2023/03/27 07:10:36;;;;;;;1.55;0.73;;;;;9.70;101775.00;;;;5004349;28;20194;-80
2023/03/27 07:13:05;;;;;;;1.75;0.70;;;;;9.70;101783.00;;;;5005355;28;20857;-79
2023/03/27 07:15:32;;;;;;;1.55;0.60;;;;;9.80;101782.00;;;;5008766;28;20227;-80
2023/03/27 07:18:01;;;;;;;3.30;0.90;;;;;9.90;101785.00;;;;5003848;28;20208;-80
2023/03/27 07:20:31;;;;;;;3.53;0.65;;;;;9.90;101789.00;;;;5006540;28;20205;-81
2023/03/27 07:22:59;;;;;;;1.15;0.38;;;;;10.00;101797.00;;;;5005328;28;20205;-81
2023/03/27 07:25:27;;;;;;;2.47;0.43;;;;;10.00;101796.00;;;;5006311;28;20573;-81
2023/03/27 07:27:59;;;;;;;0.93;0.40;;;;;10.10;101809.00;;;;5007768;28;20215;-81
2023/03/27 07:30:28;;;;;;;1.23;0.40;;;;;10.10;101814.00;;;;5005109;28;20197;-82
2023/03/27 07:32:57;;;;;;;1.48;0.30;;;;;10.20;101813.00;;;;5005666;28;20646;-80
2023/03/27 07:35:24;;;;;;;2.75;0.45;;;;;10.30;101822.00;;;;5008507;28;20275;-82
2023/03/27 07:37:53;;;;;;;0.70;0.40;;;;;10.40;101819.00;;;;5003377;28;20193;-82
2023/03/27 07:40:22;;;;;;;1.77;0.50;;;;;10.50;101816.00;;;;5004909;28;20204;-81
2023/03/27 07:42:50;;;;;;;3.85;0.35;;;;;10.60;101816.00;;;;5004874;28;20621;-81
2023/03/27 07:45:18;;;;;;;0.73;0.35;;;;;10.70;101812.00;;;;4998635;28;20198;-81
2023/03/27 07:47:47;;;;;;;2.20;0.30;;;;;10.70;101815.00;;;;5007663;28;20197;-80
2023/03/27 07:50:17;;;;;;;2.00;0.40;;;;;10.80;101825.00;;;;5006129;28;20229;-81
2023/03/27 07:52:46;;;;;;;2.95;0.35;;;;;10.90;101823.00;;;;5008589;28;20196;-81
2023/03/27 07:55:16;;;;;;;1.02;0.50;;;;;11.00;101827.00;;;;5007546;28;20247;-82
2023/03/27 07:57:46;;;;;;;1.33;0.20;;;;;11.00;101825.00;;;;5006247;28;20294;-82
2023/03/27 08:00:15;;;;;;;3.00;0.35;;;;;11.10;101828.00;;;;5004747;28;20243;-82
2023/03/27 08:02:44;;;;;;;2.03;0.73;;;;;11.20;101835.00;;;;5007250;28;20213;-81
2023/03/27 08:05:13;;;;;;;5.20;0.60;;;;;11.20;101838.00;;;;5003014;28;20205;-81
2023/03/27 08:07:44;;;;;;;3.13;0.43;;;;;11.30;101839.00;;;;5003853;28;20215;-81
2023/03/27 08:10:13;;;;;;;4.03;0.85;;;;;11.40;101841.00;;;;5007075;28;20249;-82
2023/03/27 08:12:41;;;;;;;7.95;0.50;;;;;11.60;101841.00;;;;5007083;28;20189;-81
2023/03/27 08:15:16;;;;;;;2.95;0.47;;;;;11.60;101840.00;;;;5002923;28;20296;-82
2023/03/27 08:17:44;;;;;;;1.88;0.30;;;;;11.80;101843.00;;;;5005079;28;20208;-82
2023/03/27 08:20:14;;;;;;;1.83;0.20;;;;;11.80;101846.00;;;;5003574;28;20225;-83
2023/03/27 08:22:41;;;;;;;0.70;0.20;;;;;11.90;101856.00;;;;5007459;28;20293;-82
2023/03/27 08:25:10;;;;;;;1.95;0.45;;;;;12.00;101855.00;;;;5008351;28;20307;-82
2023/03/27 08:27:37;;;;;;;2.47;0.40;;;;;12.10;101864.00;;;;5004390;28;20201;-83
2023/03/27 08:30:06;;;;;;;4.60;0.75;;;;;12.10;101875.00;;;;5004662;28;20201;-83
2023/03/27 08:32:33;;;;;;;1.92;0.40;;;;;12.20;101879.00;;;;5001763;28;20283;-83
2023/03/27 08:35:01;;;;;;;6.13;0.60;;;;;12.30;101872.00;;;;5004500;28;20215;-83
2023/03/27 08:37:29;;;;;;;1.50;0.73;;;;;12.40;101871.00;;;;5004608;28;20224;-82
2023/03/27 08:40:12;;;;;;;0.73;0.10;;;;;12.50;101890.00;;;;5005467;28;20197;-81
2023/03/27 08:42:42;;;;;;;3.08;0.40;;;;;12.60;101881.00;;;;5005699;28;20279;-83
2023/03/27 08:45:18;;;;;;;2.00;0.47;;;;;12.60;101885.00;;;;5002605;28;20197;-82
2023/03/27 08:47:51;;;;;;;2.13;0.20;;;;;12.70;101888.00;;;;5004308;28;20189;-83
2023/03/27 08:50:28;;;;;;;1.35;0.20;;;;;12.80;101906.00;;;;5005997;28;21001;-81
2023/03/27 08:52:58;;;;;;;2.05;0.40;;;;;12.90;101896.00;;;;5004714;28;20211;-81
2023/03/27 08:55:33;;;;;;;1.88;0.47;;;;;12.90;101914.00;;;;5006414;28;20201;-81
2023/03/27 08:58:00;;;;;;;1.27;0.30;;;;;12.90;101910.00;;;;5003863;28;20219;-82
2023/03/27 09:00:35;;;;;;;2.95;0.38;;;;;12.90;101915.00;;;;5004343;28;20237;-80
2023/03/27 09:03:12;;;;;;;2.75;0.47;;;;;13.00;101921.00;;;;5004445;28;20201;-81
2023/03/27 09:05:44;;;;;;;1.00;0.20;;;;;13.00;101917.00;;;;5006207;28;20219;-82
2023/03/27 09:08:23;;;;;;;2.40;0.35;;;;;13.00;101920.00;;;;5004926;28;20784;-82
2023/03/27 09:10:55;;;;;;;2.42;0.28;;;;;13.10;101943.00;;;;5003679;28;20211;-82
2023/03/27 09:13:27;;;;;;;1.98;0.30;;;;;13.20;101930.00;;;;5007368;28;20609;-81
2023/03/27 09:16:01;;;;;;;0.82;0.47;;;;;13.20;101936.00;;;;5001221;28;20229;-81
2023/03/27 09:18:34;;;;;;;0.85;0.22;;;;;13.30;101934.00;;;;5003597;28;20207;-82
2023/03/27 09:21:06;;;;;;;0.75;0.20;;;;;13.30;101939.00;;;;5005689;28;20206;-82
2023/03/27 09:23:41;;;;;;;1.10;0.50;;;;;13.40;101938.00;;;;5005839;28;20296;-81
2023/03/27 09:26:12;;;;;;;1.10;0.20;;;;;13.50;101941.00;;;;5001246;28;20211;-81
2023/03/27 09:28:49;;;;;;;1.98;0.30;;;;;13.60;101937.00;;;;5003373;28;20212;-83
2023/03/27 09:31:25;;;;;;;0.65;0.15;;;;;13.70;101944.00;;;;4998641;28;20192;-82
2023/03/27 09:33:53;;;;;;;3.33;0.40;;;;;13.80;101943.00;;;;5007312;28;20197;-83
2023/03/27 09:36:23;;;;;;;1.10;0.40;;;;;13.80;101975.00;;;;5007332;28;20225;-84
2023/03/27 09:38:57;;;;;;;1.13;0.40;;;;;13.70;101998.00;;;;5005790;28;20209;-81
2023/03/27 09:41:28;;;;;;;0.63;0.20;;;;;13.60;102012.00;;;;5006621;28;20197;-81
2023/03/27 09:44:01;;;;;;;0.50;0.10;;;;;13.40;102011.00;;;;5004218;28;20198;-82
2023/03/27 09:46:29;;;;;;;1.00;0.17;;;;;13.30;102010.00;;;;5002147;28;20239;-82
2023/03/27 09:49:00;;;;;;;1.20;0.30;;;;;13.10;102019.00;;;;5004601;28;20215;-82
2023/03/27 09:51:40;;;;;;;1.65;0.20;;;;;12.90;102012.00;;;;4999930;28;20204;-82
2023/03/27 09:54:11;;;;;;;0.70;0.17;;;;;12.90;102014.00;;;;5003104;28;20200;-83
2023/03/27 09:56:42;;;;;;;0.40;0.10;;;;;12.80;102007.00;;;;4999480;28;20236;-82
2023/03/27 09:59:12;;;;;;;1.17;0.15;;;;;12.70;102012.00;;;;5005647;28;20232;-82
2023/03/27 10:01:47;;;;;;;0.85;0.20;;;;;12.60;102011.00;;;;5005102;28;20208;-82
2023/03/27 10:04:18;;;;;;;0.93;0.40;;;;;12.70;102007.00;;;;5006772;28;20203;-81
2023/03/27 10:06:47;;;;;;;0.93;0.20;;;;;12.70;102003.00;;;;5005466;28;20251;-82
2023/03/27 10:09:25;;;;;;;1.63;0.10;;;;;12.60;102005.00;;;;5003700;28;20554;-82
2023/03/27 10:12:03;;;;;;;0.60;0.22;;;;;12.60;101997.00;;;;4999839;28;20787;-82
2023/03/27 10:14:33;;;;;;;1.45;0.25;;;;;12.70;102003.00;;;;5007737;28;20970;-83
2023/03/27 10:17:01;;;;;;;1.63;0.20;;;;;12.80;102002.00;;;;5009096;28;20240;-82
2023/03/27 10:19:32;;;;;;;1.65;0.35;;;;;12.70;102000.00;;;;4996235;28;20677;-81
2023/03/27 10:22:03;;;;;;;2.78;0.20;;;;;12.70;102000.00;;;;5005551;28;20201;-82
2023/03/27 10:24:35;;;;;;;2.80;0.68;;;;;12.70;101989.00;;;;5010302;28;20197;-82
2023/03/27 10:27:06;;;;;;;0.25;0.10;;;;;12.80;102006.00;;;;5009352;28;21055;-82
2023/03/27 10:29:36;;;;;;;1.77;0.47;;;;;12.90;101997.00;;;;5009724;28;20201;-82
2023/03/27 10:32:04;;;;;;;3.67;0.57;;;;;12.90;101996.00;;;;5009413;28;20567;-82
2023/03/27 10:34:38;;;;;;;1.23;0.30;;;;;13.00;102002.00;;;;5009613;28;20659;-83
2023/03/27 10:37:22;;;;;;;0.70;0.43;;;;;12.90;101989.00;;;;5008398;28;20236;-82
2023/03/27 10:39:54;;;;;;;1.95;0.40;;;;;13.10;101993.00;;;;5010254;28;20195;-83
2023/03/27 10:42:22;;;;;;;3.10;0.63;;;;;13.20;101994.00;;;;5011212;28;20271;-83
2023/03/27 10:44:53;;;;;;;1.38;0.50;;;;;13.30;101996.00;;;;5010639;28;20216;-82
2023/03/27 10:47:23;;;;;;;2.00;0.20;;;;;13.40;101997.00;;;;5009034;28;20219;-83
2023/03/27 10:50:01;;;;;;;4.28;0.75;;;;;13.50;101999.00;;;;5008362;28;20675;-83
2023/03/27 10:52:38;;;;;;;2.53;0.40;;;;;13.70;101997.00;;;;5003501;28;20582;-83
2023/03/27 10:55:22;;;;;;;1.45;0.28;;;;;13.90;101995.00;;;;5000108;28;20566;-82
2023/03/27 10:57:54;;;;;;;0.60;0.28;;;;;14.10;101994.00;;;;5008399;28;20225;-82
2023/03/27 11:00:31;;;;;;;2.60;0.40;;;;;14.30;102000.00;;;;5009563;28;20243;-82
2023/03/27 11:03:03;;;;;;;3.78;0.43;;;;;14.30;102006.00;;;;5009621;28;20201;-80
2023/03/27 11:05:35;;;;;;;3.42;0.57;;;;;14.40;102005.00;;;;5007876;28;20199;-81
2023/03/27 11:08:07;;;;;;;3.05;0.40;;;;;14.40;102010.00;;;;5004070;28;20193;-81
2023/03/27 11:10:40;;;;;;;4.05;0.65;;;;;14.40;102007.00;;;;5004440;28;20248;-81
2023/03/27 11:13:14;;;;;;;2.83;0.65;;;;;14.30;102010.00;;;;5010053;28;20283;-81
2023/03/27 11:15:47;;;;;;;2.97;0.40;;;;;14.40;102017.00;;;;5008469;28;20201;-82
2023/03/27 11:18:20;;;;;;;1.20;0.30;;;;;14.40;102022.00;;;;5004441;28;20225;-81
2023/03/27 11:20:51;;;;;;;2.50;0.40;;;;;14.50;102005.00;;;;5006268;28;20200;-81
2023/03/27 11:23:27;;;;;;;1.90;0.45;;;;;14.60;102018.00;;;;5006034;28;20201;-81
2023/03/27 11:25:58;;;;;;;1.63;0.20;;;;;14.70;102013.00;;;;5007841;28;20237;-81
2023/03/27 11:28:38;;;;;;;3.08;0.50;;;;;14.70;102021.00;;;;5006272;28;20204;-81
2023/03/27 11:31:12;;;;;;;4.20;0.75;;;;;14.80;102029.00;;;;5003727;28;20200;-81
2023/03/27 11:33:47;;;;;;;0.88;0.13;;;;;14.80;102024.00;;;;5007939;28;20287;-81
2023/03/27 11:36:38;;;;;;;5.20;0.30;;;;;14.80;102031.00;;;;5008660;28;20775;-82
2023/03/27 11:39:14;;;;;;;1.92;0.60;;;;;14.90;102035.00;;;;4992451;28;20202;-81
2023/03/27 11:41:49;;;;;;;4.68;0.70;;;;;14.90;102029.00;;;;5006543;28;20733;-81
2023/03/27 11:44:16;;;;;;;1.55;0.45;;;;;14.90;102032.00;;;;5002600;28;20203;-81
2023/03/27 11:46:58;;;;;;;0.25;0.15;;;;;14.90;102042.00;;;;5004564;28;20682;-82
2023/03/27 11:49:41;;;;;;;2.05;0.80;;;;;14.90;102046.00;;;;5002642;28;20627;-82
2023/03/27 11:52:20;;;;;;;1.42;0.38;;;;;14.90;102042.00;;;;4997239;28;20315;-83
2023/03/27 11:55:05;;;;;;;2.25;0.50;;;;;14.90;102055.00;;;;5003654;28;20197;-81
2023/03/27 11:57:41;;;;;;;2.42;0.30;;;;;14.90;102057.00;;;;5001951;28;20238;-82
2023/03/27 12:00:27;;;;;;;2.42;1.13;;;;;14.80;102059.00;;;;5003102;28;20233;-82
2023/03/27 12:03:18;;;;;;;3.28;0.63;;;;;14.80;102062.00;;;;4998530;28;20197;-83
2023/03/27 12:06:06;;;;;;;2.65;0.30;;;;;14.70;102064.00;;;;5008035;28;20193;-81
2023/03/27 12:08:58;;;;;;;2.47;0.63;;;;;14.60;102060.00;;;;5007952;28;20659;-81
2023/03/27 12:11:27;;;;;;;2.88;0.52;;;;;14.60;102052.00;;;;5008274;28;20193;-81
2023/03/27 12:14:30;;;;;;;4.10;0.80;;;;;14.50;102058.00;;;;5008341;28;21036;-80
2023/03/27 12:17:34;;;;;;;1.30;0.20;;;;;14.60;102060.00;;;;5002068;28;20264;-81
2023/03/27 12:20:28;;;;;;;1.00;0.40;;;;;14.50;102050.00;;;;4993771;28;20200;-82
2023/03/27 12:23:09;;;;;;;3.30;0.55;;;;;14.60;102043.00;;;;5006514;28;20247;-80
2023/03/27 12:25:51;;;;;;;4.35;0.70;;;;;14.60;102044.00;;;;5001927;28;20324;-82
2023/03/27 12:28:34;;;;;;;4.43;0.30;;;;;14.70;102056.00;;;;5001120;28;20193;-81
2023/03/27 12:31:18;;;;;;;5.18;0.90;;;;;14.70;102060.00;;;;5008026;28;20200;-82
2023/03/27 12:33:55;;;;;;;2.70;0.52;;;;;14.70;102076.00;;;;4998775;28;20222;-81
2023/03/27 12:36:27;;;;;;;2.25;0.93;;;;;14.60;102107.00;;;;5005089;28;20672;-81
2023/03/27 12:38:55;;;;;;;2.15;0.70;;;;;14.40;102122.00;;;;5005325;28;20194;-82